sensor_id;sensor_type;location;lat;lon;timestamp;pressure;altitude;pressure_sealevel;temperature;humidity
18509;BME280;9383;50.928;12.116;2023-08-21T00:00:10;99418.47;;;19.92;99.89
18509;BME280;9383;50.928;12.116;2023-08-21T00:02:38;99423.94;;;19.90;99.69
18509;BME280;9383;50.928;12.116;2023-08-21T00:05:05;99410.47;;;19.90;99.81
18509;BME280;9383;50.928;12.116;2023-08-21T00:07:32;99416.06;;;19.87;99.67
18509;BME280;9383;50.928;12.116;2023-08-21T00:09:59;99420.69;;;19.85;99.73
18509;BME280;9383;50.928;12.116;2023-08-21T00:12:25;99417.25;;;19.83;99.86
18509;BME280;9383;50.928;12.116;2023-08-21T00:14:52;99411.09;;;19.81;99.93
18509;BME280;9383;50.928;12.116;2023-08-21T00:17:18;99412.06;;;19.80;99.59
18509;BME280;9383;50.928;12.116;2023-08-21T00:19:45;99410.44;;;19.77;99.50
18509;BME280;9383;50.928;12.116;2023-08-21T00:22:11;99403.34;;;19.76;99.43
18509;BME280;9383;50.928;12.116;2023-08-21T00:24:38;99406.25;;;19.73;99.38
18509;BME280;9383;50.928;12.116;2023-08-21T00:27:04;99407.19;;;19.72;99.17
18509;BME280;9383;50.928;12.116;2023-08-21T00:29:32;99402.00;;;19.69;99.32
18509;BME280;9383;50.928;12.116;2023-08-21T00:31:58;99403.94;;;19.67;99.76
18509;BME280;9383;50.928;12.116;2023-08-21T00:34:25;99400.56;;;19.63;100.00
18509;BME280;9383;50.928;12.116;2023-08-21T00:36:51;99402.41;;;19.63;99.89
18509;BME280;9383;50.928;12.116;2023-08-21T00:39:18;99399.94;;;19.60;100.00
18509;BME280;9383;50.928;12.116;2023-08-21T00:41:44;99396.47;;;19.58;99.88
18509;BME280;9383;50.928;12.116;2023-08-21T00:44:11;99394.75;;;19.57;99.83
18509;BME280;9383;50.928;12.116;2023-08-21T00:46:37;99390.44;;;19.54;99.67
18509;BME280;9383;50.928;12.116;2023-08-21T00:49:04;99395.16;;;19.50;99.76
18509;BME280;9383;50.928;12.116;2023-08-21T00:55:16;99403.72;;;19.43;100.00
18509;BME280;9383;50.928;12.116;2023-08-21T00:57:43;99395.94;;;19.38;99.95
18509;BME280;9383;50.928;12.116;2023-08-21T01:00:12;99400.75;;;19.33;99.92
18509;BME280;9383;50.928;12.116;2023-08-21T01:02:39;99400.94;;;19.30;100.00
18509;BME280;9383;50.928;12.116;2023-08-21T01:05:07;99398.66;;;19.23;100.00
18509;BME280;9383;50.928;12.116;2023-08-21T01:07:38;99396.94;;;19.22;100.00
18509;BME280;9383;50.928;12.116;2023-08-21T01:10:22;99394.41;;;19.19;100.00
18509;BME280;9383;50.928;12.116;2023-08-21T01:13:04;99397.41;;;19.15;100.00
18509;BME280;9383;50.928;12.116;2023-08-21T01:15:33;99400.41;;;19.10;100.00
18509;BME280;9383;50.928;12.116;2023-08-21T01:18:00;99394.34;;;19.06;100.00
18509;BME280;9383;50.928;12.116;2023-08-21T01:20:28;99399.81;;;19.05;100.00
18509;BME280;9383;50.928;12.116;2023-08-21T01:22:55;99400.00;;;19.02;100.00
18509;BME280;9383;50.928;12.116;2023-08-21T01:25:22;99404.63;;;19.00;100.00
18509;BME280;9383;50.928;12.116;2023-08-21T01:27:49;99403.81;;;18.97;100.00
18509;BME280;9383;50.928;12.116;2023-08-21T01:30:17;99404.97;;;18.93;100.00
18509;BME280;9383;50.928;12.116;2023-08-21T01:33:00;99394.50;;;18.89;100.00
18509;BME280;9383;50.928;12.116;2023-08-21T01:35:33;99409.97;;;18.85;100.00
18509;BME280;9383;50.928;12.116;2023-08-21T01:38:00;99407.44;;;18.82;100.00
18509;BME280;9383;50.928;12.116;2023-08-21T01:40:27;99409.38;;;18.80;100.00
18509;BME280;9383;50.928;12.116;2023-08-21T01:42:54;99407.75;;;18.77;100.00
18509;BME280;9383;50.928;12.116;2023-08-21T01:45:21;99410.59;;;18.74;100.00
18509;BME280;9383;50.928;12.116;2023-08-21T01:47:47;99409.84;;;18.72;100.00
18509;BME280;9383;50.928;12.116;2023-08-21T01:50:14;99404.66;;;18.69;100.00
18509;BME280;9383;50.928;12.116;2023-08-21T01:52:41;99398.53;;;18.67;100.00
18509;BME280;9383;50.928;12.116;2023-08-21T01:55:07;99407.63;;;18.64;100.00
18509;BME280;9383;50.928;12.116;2023-08-21T01:57:34;99404.06;;;18.64;100.00
18509;BME280;9383;50.928;12.116;2023-08-21T02:00:01;99405.16;;;18.61;100.00
18509;BME280;9383;50.928;12.116;2023-08-21T02:02:29;99402.66;;;18.58;100.00
18509;BME280;9383;50.928;12.116;2023-08-21T02:04:56;99400.13;;;18.55;100.00
18509;BME280;9383;50.928;12.116;2023-08-21T02:07:23;99403.00;;;18.52;100.00
18509;BME280;9383;50.928;12.116;2023-08-21T02:09:49;99412.97;;;18.50;100.00
18509;BME280;9383;50.928;12.116;2023-08-21T02:12:16;99408.56;;;18.49;100.00
18509;BME280;9383;50.928;12.116;2023-08-21T02:14:42;99409.69;;;18.45;100.00
18509;BME280;9383;50.928;12.116;2023-08-21T02:17:09;99405.41;;;18.42;100.00
18509;BME280;9383;50.928;12.116;2023-08-21T02:19:35;99407.31;;;18.40;100.00
18509;BME280;9383;50.928;12.116;2023-08-21T02:22:02;99404.72;;;18.38;100.00
18509;BME280;9383;50.928;12.116;2023-08-21T02:24:28;99405.75;;;18.36;100.00
18509;BME280;9383;50.928;12.116;2023-08-21T02:26:55;99404.13;;;18.33;100.00
18509;BME280;9383;50.928;12.116;2023-08-21T02:29:21;99401.59;;;18.30;100.00
18509;BME280;9383;50.928;12.116;2023-08-21T02:31:48;99399.88;;;18.29;100.00
18509;BME280;9383;50.928;12.116;2023-08-21T02:34:14;99397.31;;;18.27;100.00
18509;BME280;9383;50.928;12.116;2023-08-21T02:36:41;99395.75;;;18.23;100.00
18509;BME280;9383;50.928;12.116;2023-08-21T02:39:07;99398.53;;;18.22;100.00
18509;BME280;9383;50.928;12.116;2023-08-21T02:41:34;99401.31;;;18.20;100.00
18509;BME280;9383;50.928;12.116;2023-08-21T02:44:00;99400.41;;;18.20;100.00
18509;BME280;9383;50.928;12.116;2023-08-21T02:46:27;99396.13;;;18.17;100.00
18509;BME280;9383;50.928;12.116;2023-08-21T02:48:53;99393.53;;;18.16;100.00
18509;BME280;9383;50.928;12.116;2023-08-21T02:51:20;99398.13;;;18.13;100.00
18509;BME280;9383;50.928;12.116;2023-08-21T02:53:46;99402.59;;;18.13;100.00
18509;BME280;9383;50.928;12.116;2023-08-21T02:56:13;99401.75;;;18.12;100.00
18509;BME280;9383;50.928;12.116;2023-08-21T02:58:39;99401.00;;;18.10;100.00
18509;BME280;9383;50.928;12.116;2023-08-21T03:01:06;99393.44;;;18.01;100.00
18509;BME280;9383;50.928;12.116;2023-08-21T03:03:32;99401.34;;;18.04;100.00
18509;BME280;9383;50.928;12.116;2023-08-21T03:06:01;99403.22;;;18.02;100.00
18509;BME280;9383;50.928;12.116;2023-08-21T03:08:28;99400.72;;;17.99;100.00
18509;BME280;9383;50.928;12.116;2023-08-21T03:10:54;99408.00;;;17.97;100.00
18509;BME280;9383;50.928;12.116;2023-08-21T03:13:20;99406.34;;;17.94;100.00
18509;BME280;9383;50.928;12.116;2023-08-21T03:15:47;99397.44;;;17.94;100.00
18509;BME280;9383;50.928;12.116;2023-08-21T03:18:14;99404.69;;;17.92;100.00
18509;BME280;9383;50.928;12.116;2023-08-21T03:20:45;99403.94;;;17.90;100.00
18509;BME280;9383;50.928;12.116;2023-08-21T03:23:13;99403.94;;;17.90;100.00
18509;BME280;9383;50.928;12.116;2023-08-21T03:25:39;99396.84;;;17.89;100.00
18509;BME280;9383;50.928;12.116;2023-08-21T03:28:06;99399.72;;;17.85;100.00
18509;BME280;9383;50.928;12.116;2023-08-21T03:30:32;99398.94;;;17.83;100.00
18509;BME280;9383;50.928;12.116;2023-08-21T03:32:59;99399.97;;;17.81;100.00
18509;BME280;9383;50.928;12.116;2023-08-21T03:35:25;99401.00;;;17.78;100.00
18509;BME280;9383;50.928;12.116;2023-08-21T03:37:52;99406.47;;;17.77;100.00
18509;BME280;9383;50.928;12.116;2023-08-21T03:40:18;99401.25;;;17.74;100.00
18509;BME280;9383;50.928;12.116;2023-08-21T03:42:45;99401.44;;;17.70;100.00
18509;BME280;9383;50.928;12.116;2023-08-21T03:45:12;99401.53;;;17.69;100.00
18509;BME280;9383;50.928;12.116;2023-08-21T03:47:38;99402.47;;;17.68;100.00
18509;BME280;9383;50.928;12.116;2023-08-21T03:50:05;99402.59;;;17.66;100.00
18509;BME280;9383;50.928;12.116;2023-08-21T03:52:32;99400.94;;;17.64;100.00
18509;BME280;9383;50.928;12.116;2023-08-21T03:55:00;99404.56;;;17.63;100.00
18509;BME280;9383;50.928;12.116;2023-08-21T03:57:28;99401.13;;;17.61;100.00
18509;BME280;9383;50.928;12.116;2023-08-21T03:59:54;99403.03;;;17.58;100.00
18509;BME280;9383;50.928;12.116;2023-08-21T04:02:21;99405.84;;;17.55;100.00
18509;BME280;9383;50.928;12.116;2023-08-21T04:04:48;99403.28;;;17.54;100.00
18509;BME280;9383;50.928;12.116;2023-08-21T04:07:15;99409.59;;;17.53;100.00
18509;BME280;9383;50.928;12.116;2023-08-21T04:09:41;99406.16;;;17.51;100.00
18509;BME280;9383;50.928;12.116;2023-08-21T04:12:08;99406.28;;;17.48;100.00
18509;BME280;9383;50.928;12.116;2023-08-21T04:14:35;99414.50;;;17.44;100.00
18509;BME280;9383;50.928;12.116;2023-08-21T04:17:01;99411.91;;;17.43;100.00
18509;BME280;9383;50.928;12.116;2023-08-21T04:19:28;99408.47;;;17.41;100.00
18509;BME280;9383;50.928;12.116;2023-08-21T04:21:59;99415.72;;;17.39;100.00
18509;BME280;9383;50.928;12.116;2023-08-21T04:24:25;99411.38;;;17.36;100.00
18509;BME280;9383;50.928;12.116;2023-08-21T04:26:52;99414.16;;;17.35;100.00
18509;BME280;9383;50.928;12.116;2023-08-21T04:29:19;99415.91;;;17.36;100.00
18509;BME280;9383;50.928;12.116;2023-08-21T04:31:46;99416.75;;;17.36;100.00
18509;BME280;9383;50.928;12.116;2023-08-21T04:34:13;99422.09;;;17.36;100.00
18509;BME280;9383;50.928;12.116;2023-08-21T04:36:39;99417.69;;;17.35;100.00
18509;BME280;9383;50.928;12.116;2023-08-21T04:39:06;99420.31;;;17.37;100.00
18509;BME280;9383;50.928;12.116;2023-08-21T04:41:33;99419.44;;;17.36;100.00
18509;BME280;9383;50.928;12.116;2023-08-21T04:43:59;99423.00;;;17.37;100.00
18509;BME280;9383;50.928;12.116;2023-08-21T04:46:26;99430.06;;;17.38;100.00
18509;BME280;9383;50.928;12.116;2023-08-21T04:48:53;99423.75;;;17.39;100.00
18509;BME280;9383;50.928;12.116;2023-08-21T04:51:19;99433.63;;;17.38;100.00
18509;BME280;9383;50.928;12.116;2023-08-21T04:53:46;99429.13;;;17.39;100.00
18509;BME280;9383;50.928;12.116;2023-08-21T04:56:13;99432.69;;;17.39;100.00
18509;BME280;9383;50.928;12.116;2023-08-21T04:58:40;99424.63;;;17.39;100.00
18509;BME280;9383;50.928;12.116;2023-08-21T05:01:06;99423.59;;;17.42;100.00
18509;BME280;9383;50.928;12.116;2023-08-21T05:03:34;99427.16;;;17.42;100.00
18509;BME280;9383;50.928;12.116;2023-08-21T05:06:01;99436.84;;;17.45;100.00
18509;BME280;9383;50.928;12.116;2023-08-21T05:08:28;99443.94;;;17.46;100.00
18509;BME280;9383;50.928;12.116;2023-08-21T05:10:58;99440.28;;;17.47;100.00
18509;BME280;9383;50.928;12.116;2023-08-21T05:13:25;99447.28;;;17.50;100.00
18509;BME280;9383;50.928;12.116;2023-08-21T05:15:55;99440.13;;;17.50;100.00
18509;BME280;9383;50.928;12.116;2023-08-21T05:18:23;99447.91;;;17.55;100.00
18509;BME280;9383;50.928;12.116;2023-08-21T05:20:50;99451.19;;;17.60;100.00
18509;BME280;9383;50.928;12.116;2023-08-21T05:23:17;99458.00;;;17.66;100.00
18509;BME280;9383;50.928;12.116;2023-08-21T05:25:44;99448.88;;;17.70;100.00
18509;BME280;9383;50.928;12.116;2023-08-21T05:28:11;99452.22;;;17.74;100.00
18509;BME280;9383;50.928;12.116;2023-08-21T05:30:37;99451.97;;;17.78;100.00
18509;BME280;9383;50.928;12.116;2023-08-21T05:33:04;99442.69;;;17.84;100.00
18509;BME280;9383;50.928;12.116;2023-08-21T05:35:35;99451.38;;;17.89;100.00
18509;BME280;9383;50.928;12.116;2023-08-21T05:38:03;99447.34;;;17.96;100.00
18509;BME280;9383;50.928;12.116;2023-08-21T05:40:31;99455.00;;;18.04;100.00
18509;BME280;9383;50.928;12.116;2023-08-21T05:42:59;99459.84;;;18.13;100.00
18509;BME280;9383;50.928;12.116;2023-08-21T05:45:26;99453.16;;;18.21;100.00
18509;BME280;9383;50.928;12.116;2023-08-21T05:48:00;99459.88;;;18.28;100.00
18509;BME280;9383;50.928;12.116;2023-08-21T05:50:27;99458.59;;;18.35;100.00
18509;BME280;9383;50.928;12.116;2023-08-21T05:52:54;99463.22;;;18.48;100.00
18509;BME280;9383;50.928;12.116;2023-08-21T05:55:21;99461.81;;;18.56;100.00
18509;BME280;9383;50.928;12.116;2023-08-21T05:57:47;99458.19;;;18.72;100.00
18509;BME280;9383;50.928;12.116;2023-08-21T06:00:15;99459.94;;;18.88;100.00
18509;BME280;9383;50.928;12.116;2023-08-21T06:02:42;99461.97;;;18.98;100.00
18509;BME280;9383;50.928;12.116;2023-08-21T06:05:09;99456.53;;;19.15;100.00
18509;BME280;9383;50.928;12.116;2023-08-21T06:07:36;99461.81;;;19.31;100.00
18509;BME280;9383;50.928;12.116;2023-08-21T06:10:04;99466.59;;;19.54;100.00
18509;BME280;9383;50.928;12.116;2023-08-21T06:12:32;99467.31;;;19.71;100.00
18509;BME280;9383;50.928;12.116;2023-08-21T06:14:58;99462.47;;;19.91;100.00
18509;BME280;9383;50.928;12.116;2023-08-21T06:17:26;99463.13;;;20.09;100.00
18509;BME280;9383;50.928;12.116;2023-08-21T06:19:53;99471.88;;;20.26;100.00
18509;BME280;9383;50.928;12.116;2023-08-21T06:22:20;99476.38;;;20.40;100.00
18509;BME280;9383;50.928;12.116;2023-08-21T06:24:47;99474.66;;;20.51;100.00
18509;BME280;9383;50.928;12.116;2023-08-21T06:27:13;99477.59;;;20.61;100.00
18509;BME280;9383;50.928;12.116;2023-08-21T06:29:40;99475.97;;;20.72;100.00
18509;BME280;9383;50.928;12.116;2023-08-21T06:32:06;99484.22;;;20.83;100.00
18509;BME280;9383;50.928;12.116;2023-08-21T06:34:33;99482.53;;;20.95;100.00
18509;BME280;9383;50.928;12.116;2023-08-21T06:37:00;99482.72;;;21.05;100.00
18509;BME280;9383;50.928;12.116;2023-08-21T06:39:27;99483.81;;;21.15;100.00
18509;BME280;9383;50.928;12.116;2023-08-21T06:41:54;99484.03;;;21.25;100.00
18509;BME280;9383;50.928;12.116;2023-08-21T06:44:21;99481.53;;;21.35;100.00
18509;BME280;9383;50.928;12.116;2023-08-21T06:46:48;99475.59;;;21.43;100.00
18509;BME280;9383;50.928;12.116;2023-08-21T06:49:16;99484.97;;;21.50;100.00
18509;BME280;9383;50.928;12.116;2023-08-21T06:51:43;99479.25;;;21.55;100.00
18509;BME280;9383;50.928;12.116;2023-08-21T06:54:10;99487.66;;;21.63;100.00
18509;BME280;9383;50.928;12.116;2023-08-21T06:56:37;99486.16;;;21.72;100.00
18509;BME280;9383;50.928;12.116;2023-08-21T06:59:04;99491.72;;;21.82;100.00
18509;BME280;9383;50.928;12.116;2023-08-21T07:01:30;99490.31;;;21.89;100.00
18509;BME280;9383;50.928;12.116;2023-08-21T07:03:58;99494.03;;;21.99;100.00
18509;BME280;9383;50.928;12.116;2023-08-21T07:06:27;99485.03;;;22.12;100.00
18509;BME280;9383;50.928;12.116;2023-08-21T07:08:54;99493.06;;;22.25;100.00
18509;BME280;9383;50.928;12.116;2023-08-21T07:11:21;99500.59;;;22.32;100.00
18509;BME280;9383;50.928;12.116;2023-08-21T07:13:47;99508.81;;;22.31;100.00
18509;BME280;9383;50.928;12.116;2023-08-21T07:16:38;99512.84;;;22.25;100.00
18509;BME280;9383;50.928;12.116;2023-08-21T07:19:12;99504.75;;;22.25;100.00
18509;BME280;9383;50.928;12.116;2023-08-21T07:21:39;99506.56;;;22.25;100.00
18509;BME280;9383;50.928;12.116;2023-08-21T07:24:06;99506.56;;;22.25;100.00
18509;BME280;9383;50.928;12.116;2023-08-21T07:26:33;99507.22;;;22.28;100.00
18509;BME280;9383;50.928;12.116;2023-08-21T07:28:59;99506.63;;;22.36;100.00
18509;BME280;9383;50.928;12.116;2023-08-21T07:31:26;99507.03;;;22.43;100.00
18509;BME280;9383;50.928;12.116;2023-08-21T07:33:52;99502.94;;;22.50;98.99
18509;BME280;9383;50.928;12.116;2023-08-21T07:36:19;99459.34;;;22.30;98.04
18509;BME280;9383;50.928;12.116;2023-08-21T07:38:46;99497.09;;;22.68;97.49
18509;BME280;9383;50.928;12.116;2023-08-21T07:41:32;99509.41;;;22.83;97.48
18509;BME280;9383;50.928;12.116;2023-08-21T07:44:01;99518.28;;;22.97;96.31
18509;BME280;9383;50.928;12.116;2023-08-21T07:46:27;99515.13;;;23.03;94.51
18509;BME280;9383;50.928;12.116;2023-08-21T07:48:54;99515.16;;;23.14;94.26
18509;BME280;9383;50.928;12.116;2023-08-21T07:51:21;99516.25;;;23.23;93.92
18509;BME280;9383;50.928;12.116;2023-08-21T07:53:47;99507.22;;;23.36;94.44
18509;BME280;9383;50.928;12.116;2023-08-21T07:56:16;99512.47;;;23.49;94.34
18509;BME280;9383;50.928;12.116;2023-08-21T07:58:43;99509.94;;;23.58;92.48
18509;BME280;9383;50.928;12.116;2023-08-21T08:01:09;99509.53;;;23.63;90.83
18509;BME280;9383;50.928;12.116;2023-08-21T08:03:36;99506.22;;;23.71;90.89
18509;BME280;9383;50.928;12.116;2023-08-21T08:06:03;99502.75;;;23.80;89.42
18509;BME280;9383;50.928;12.116;2023-08-21T08:08:30;99505.31;;;23.93;89.28
18509;BME280;9383;50.928;12.116;2023-08-21T08:11:01;99496.44;;;24.02;87.70
18509;BME280;9383;50.928;12.116;2023-08-21T08:13:28;99505.31;;;24.16;87.32
18509;BME280;9383;50.928;12.116;2023-08-21T08:15:55;99501.44;;;24.30;88.04
18509;BME280;9383;50.928;12.116;2023-08-21T08:18:22;99503.72;;;24.46;88.03
18509;BME280;9383;50.928;12.116;2023-08-21T08:20:48;99495.41;;;24.59;86.05
18509;BME280;9383;50.928;12.116;2023-08-21T08:23:15;99495.50;;;24.69;85.10
18509;BME280;9383;50.928;12.116;2023-08-21T08:25:41;99501.88;;;24.79;84.70
18509;BME280;9383;50.928;12.116;2023-08-21T08:28:08;99499.81;;;24.93;84.26
18509;BME280;9383;50.928;12.116;2023-08-21T08:30:35;99499.00;;;25.02;83.68
18509;BME280;9383;50.928;12.116;2023-08-21T08:33:01;99497.94;;;25.14;83.82
18509;BME280;9383;50.928;12.116;2023-08-21T08:35:28;99501.28;;;25.28;83.55
18509;BME280;9383;50.928;12.116;2023-08-21T08:37:55;99501.94;;;25.41;83.70
18509;BME280;9383;50.928;12.116;2023-08-21T08:40:46;99504.44;;;25.54;81.96
18509;BME280;9383;50.928;12.116;2023-08-21T08:43:15;99508.34;;;25.62;80.82
18509;BME280;9383;50.928;12.116;2023-08-21T08:45:47;99506.06;;;25.67;79.21
18509;BME280;9383;50.928;12.116;2023-08-21T08:48:22;99506.63;;;25.61;77.79
18509;BME280;9383;50.928;12.116;2023-08-21T08:50:55;99505.78;;;25.70;78.90
18509;BME280;9383;50.928;12.116;2023-08-21T08:53:23;99504.97;;;25.79;78.80
18509;BME280;9383;50.928;12.116;2023-08-21T08:56:09;99507.00;;;25.87;78.10
18509;BME280;9383;50.928;12.116;2023-08-21T08:58:37;99505.03;;;25.99;78.43
18509;BME280;9383;50.928;12.116;2023-08-21T09:01:03;99502.91;;;26.12;78.58
18509;BME280;9383;50.928;12.116;2023-08-21T09:03:30;99500.41;;;26.31;79.15
18509;BME280;9383;50.928;12.116;2023-08-21T09:05:57;99499.25;;;26.43;78.13
18509;BME280;9383;50.928;12.116;2023-08-21T09:08:26;99498.25;;;26.54;77.07
18509;BME280;9383;50.928;12.116;2023-08-21T09:10:54;99497.09;;;26.47;75.30
18509;BME280;9383;50.928;12.116;2023-08-21T09:13:21;99496.66;;;26.42;74.64
18509;BME280;9383;50.928;12.116;2023-08-21T09:15:53;99497.22;;;26.35;73.89
18509;BME280;9383;50.928;12.116;2023-08-21T09:18:19;99493.94;;;26.42;74.52
18509;BME280;9383;50.928;12.116;2023-08-21T09:20:46;99496.53;;;26.53;74.47
18509;BME280;9383;50.928;12.116;2023-08-21T09:23:15;99488.06;;;26.66;74.88
18509;BME280;9383;50.928;12.116;2023-08-21T09:25:45;99494.06;;;26.79;73.64
18509;BME280;9383;50.928;12.116;2023-08-21T09:28:14;99501.25;;;26.80;72.60
18509;BME280;9383;50.928;12.116;2023-08-21T09:30:59;99491.66;;;26.86;72.68
18509;BME280;9383;50.928;12.116;2023-08-21T09:33:26;99487.22;;;26.95;72.83
18509;BME280;9383;50.928;12.116;2023-08-21T09:35:55;99491.47;;;27.07;73.13
18509;BME280;9383;50.928;12.116;2023-08-21T09:38:22;99487.97;;;27.25;73.65
18509;BME280;9383;50.928;12.116;2023-08-21T09:40:54;99482.66;;;27.33;71.63
18509;BME280;9383;50.928;12.116;2023-08-21T09:43:22;99491.22;;;27.38;71.84
18509;BME280;9383;50.928;12.116;2023-08-21T09:45:50;99487.50;;;27.39;70.11
18509;BME280;9383;50.928;12.116;2023-08-21T09:48:28;99482.34;;;27.36;70.54
18509;BME280;9383;50.928;12.116;2023-08-21T09:50:55;99485.03;;;27.46;71.01
18509;BME280;9383;50.928;12.116;2023-08-21T09:53:22;99481.84;;;27.61;71.34
18509;BME280;9383;50.928;12.116;2023-08-21T09:55:56;99474.78;;;27.68;70.01
18509;BME280;9383;50.928;12.116;2023-08-21T09:58:23;99472.56;;;27.82;70.30
18509;BME280;9383;50.928;12.116;2023-08-21T10:00:51;99471.59;;;28.01;70.20
18509;BME280;9383;50.928;12.116;2023-08-21T10:03:21;99465.91;;;28.12;69.82
18509;BME280;9383;50.928;12.116;2023-08-21T10:05:50;99466.28;;;28.27;69.51
18509;BME280;9383;50.928;12.116;2023-08-21T10:08:25;99461.50;;;28.47;69.71
18509;BME280;9383;50.928;12.116;2023-08-21T10:11:12;99464.78;;;28.51;66.83
18509;BME280;9383;50.928;12.116;2023-08-21T10:13:39;99461.50;;;28.29;66.01
18509;BME280;9383;50.928;12.116;2023-08-21T10:16:07;99455.13;;;28.20;67.68
18509;BME280;9383;50.928;12.116;2023-08-21T10:18:35;99450.50;;;28.39;68.08
18509;BME280;9383;50.928;12.116;2023-08-21T10:21:19;99450.72;;;28.64;67.75
18509;BME280;9383;50.928;12.116;2023-08-21T10:23:51;99454.53;;;28.71;66.80
18509;BME280;9383;50.928;12.116;2023-08-21T10:26:22;99448.31;;;28.61;65.88
18509;BME280;9383;50.928;12.116;2023-08-21T10:28:57;99447.91;;;28.56;66.68
18509;BME280;9383;50.928;12.116;2023-08-21T10:31:32;99449.88;;;28.63;65.89
18509;BME280;9383;50.928;12.116;2023-08-21T10:34:01;99453.09;;;28.59;65.36
18509;BME280;9383;50.928;12.116;2023-08-21T10:39:23;99450.94;;;28.89;66.65
18509;BME280;9383;50.928;12.116;2023-08-21T10:41:57;99448.31;;;29.05;66.38
18509;BME280;9383;50.928;12.116;2023-08-21T10:44:46;99442.09;;;29.22;64.78
18509;BME280;9383;50.928;12.116;2023-08-21T10:50:14;99439.06;;;29.33;64.69
18509;BME280;9383;50.928;12.116;2023-08-21T10:52:42;99443.25;;;29.45;64.28
18509;BME280;9383;50.928;12.116;2023-08-21T10:55:12;99441.69;;;29.43;63.16
18509;BME280;9383;50.928;12.116;2023-08-21T10:57:40;99447.09;;;29.34;62.86
18509;BME280;9383;50.928;12.116;2023-08-21T11:00:12;99438.53;;;29.29;62.39
18509;BME280;9383;50.928;12.116;2023-08-21T11:02:44;99445.84;;;29.20;61.88
18509;BME280;9383;50.928;12.116;2023-08-21T11:05:13;99446.81;;;29.11;61.58
18509;BME280;9383;50.928;12.116;2023-08-21T11:07:49;99441.78;;;28.98;61.42
18509;BME280;9383;50.928;12.116;2023-08-21T11:10:22;99443.44;;;28.91;61.92
18509;BME280;9383;50.928;12.116;2023-08-21T11:12:55;99444.66;;;28.97;62.25
18509;BME280;9383;50.928;12.116;2023-08-21T11:15:25;99442.84;;;29.05;61.78
18509;BME280;9383;50.928;12.116;2023-08-21T11:18:02;99438.31;;;29.14;61.99
18509;BME280;9383;50.928;12.116;2023-08-21T11:20:30;99437.97;;;29.17;61.59
18509;BME280;9383;50.928;12.116;2023-08-21T11:23:00;99436.09;;;29.18;61.20
18509;BME280;9383;50.928;12.116;2023-08-21T11:25:34;99429.78;;;29.17;60.34
18509;BME280;9383;50.928;12.116;2023-08-21T11:28:01;99430.22;;;29.04;60.56
18509;BME280;9383;50.928;12.116;2023-08-21T11:30:31;99427.81;;;29.01;62.11
18509;BME280;9383;50.928;12.116;2023-08-21T11:33:10;99423.38;;;29.00;61.39
18509;BME280;9383;50.928;12.116;2023-08-21T11:35:41;99425.75;;;28.95;61.34
18509;BME280;9383;50.928;12.116;2023-08-21T11:38:19;99431.84;;;28.89;61.04
18509;BME280;9383;50.928;12.116;2023-08-21T11:43:23;99387.56;;;28.50;62.30
18509;BME280;9383;50.928;12.116;2023-08-21T11:46:02;99423.56;;;28.81;62.74
18509;BME280;9383;50.928;12.116;2023-08-21T11:48:30;99418.09;;;28.81;62.20
18509;BME280;9383;50.928;12.116;2023-08-21T11:50:57;99424.66;;;28.88;62.31
18509;BME280;9383;50.928;12.116;2023-08-21T11:56:01;99422.09;;;28.86;61.61
18509;BME280;9383;50.928;12.116;2023-08-21T11:58:28;99422.31;;;28.75;61.22
18509;BME280;9383;50.928;12.116;2023-08-21T12:01:02;99426.53;;;28.69;61.85
18509;BME280;9383;50.928;12.116;2023-08-21T12:03:30;99418.34;;;28.69;61.32
18509;BME280;9383;50.928;12.116;2023-08-21T12:05:59;99422.91;;;28.60;61.35
18509;BME280;9383;50.928;12.116;2023-08-21T12:08:25;99420.38;;;28.67;62.30
18509;BME280;9383;50.928;12.116;2023-08-21T12:10:52;99425.03;;;28.75;62.28
18509;BME280;9383;50.928;12.116;2023-08-21T12:13:19;99425.22;;;28.73;61.77
18509;BME280;9383;50.928;12.116;2023-08-21T12:15:45;99421.72;;;28.81;61.16
18509;BME280;9383;50.928;12.116;2023-08-21T12:18:12;99406.25;;;28.90;61.91
18509;BME280;9383;50.928;12.116;2023-08-21T12:20:57;99416.34;;;28.98;61.36
18509;BME280;9383;50.928;12.116;2023-08-21T12:23:24;99408.16;;;28.89;59.66
18509;BME280;9383;50.928;12.116;2023-08-21T12:25:51;99407.19;;;28.81;60.22
18509;BME280;9383;50.928;12.116;2023-08-21T12:28:17;99409.06;;;28.80;59.49
18509;BME280;9383;50.928;12.116;2023-08-21T12:30:51;99411.66;;;28.82;59.28
18509;BME280;9383;50.928;12.116;2023-08-21T12:33:17;99404.44;;;28.81;59.12
18509;BME280;9383;50.928;12.116;2023-08-21T12:35:47;99416.03;;;28.74;58.33
18509;BME280;9383;50.928;12.116;2023-08-21T12:38:14;99413.22;;;28.66;59.09
18509;BME280;9383;50.928;12.116;2023-08-21T12:40:41;99416.28;;;28.63;59.65
18509;BME280;9383;50.928;12.116;2023-08-21T12:43:09;99420.56;;;28.66;60.44
18509;BME280;9383;50.928;12.116;2023-08-21T12:45:37;99409.88;;;28.72;60.22
18509;BME280;9383;50.928;12.116;2023-08-21T12:48:04;99416.38;;;28.79;60.62
18509;BME280;9383;50.928;12.116;2023-08-21T12:50:31;99410.88;;;28.89;61.08
18509;BME280;9383;50.928;12.116;2023-08-21T12:53:14;99366.53;;;28.69;61.23
18509;BME280;9383;50.928;12.116;2023-08-21T12:55:42;99412.59;;;28.99;59.17
18509;BME280;9383;50.928;12.116;2023-08-21T12:58:09;99403.72;;;28.97;59.79
18509;BME280;9383;50.928;12.116;2023-08-21T13:00:36;99402.72;;;28.98;59.62
18509;BME280;9383;50.928;12.116;2023-08-21T13:03:03;99400.38;;;29.03;59.62
18509;BME280;9383;50.928;12.116;2023-08-21T13:05:31;99401.59;;;29.09;59.19
18509;BME280;9383;50.928;12.116;2023-08-21T13:08:01;99403.44;;;29.08;58.52
18509;BME280;9383;50.928;12.116;2023-08-21T13:10:27;99407.06;;;29.09;58.17
18509;BME280;9383;50.928;12.116;2023-08-21T13:12:55;99410.28;;;29.12;58.37
18509;BME280;9383;50.928;12.116;2023-08-21T13:15:23;99406.19;;;29.08;57.24